Share

Belle Valley, OH (43717)

KOHBEVER2 Elev 702 ft | 39.55 °N, 81.64 °W | Change Station

Current weather conditions updated 3 seconds ago

Clear
Clear
49.1 °F
Feels Like 49 °F
N
0.0
Wind Variable Wind from North
Gusts 0.0 mph
Sunrise 6:44 AM
Sunset 8:07 PM
Moon Waning Gibbous

Tomorrow is forecast to be Much Cooler than today.

Pressure 30.22 in
Visibility 10.0 miles
Clouds Clear
Windchill 49 °F
Dew Point 42 °F
Humidity 75%
Rainfall 0.00 in
Snow Depth Not available.
UV 0 out of 16
Pollen 10.50 out of 12
Air Quality Not available.
Flu Activity Local Activity
METAR KZZV 190153Z AUTO 34003KT 10SM CLR 14/02 A3022 RMK AO2 SLP234 T01390017 TSNO

More Conditions Fewer Conditions

Pressure 30.22 in
Visibility 10.0 miles
Clouds Clear
Windchill 49 °F
Dew Point 42 °F
Humidity 75%
Rainfall 0.00 in
Snow Depth Not available.
UV 0 out of 16
Pollen 10.50 out of 12
Air Quality Not available.
Flu Activity Local Activity
METAR KZZV 190153Z AUTO 34003KT 10SM CLR 14/02 A3022 RMK AO2 SLP234 T01390017 TSNO

More Conditions Fewer Conditions

10-Day Weather Forecast

Almanac

Astronomy

Apr. 18, 2014 Rise Set
Actual Time 6:44 AM EDT 8:07 PM EDT
Civil Twilight 6:16 AM EDT 8:35 PM EDT
Nautical Twilight 5:42 AM EDT 9:09 PM EDT
Astronomical Twilight 5:06 AM EDT 9:45 PM EDT
Moon 11:51 PM EDT (4/18) 9:05 AM EDT (4/18)
Length of Visible Light 14h 19m
Length of Day
13h 23m
Tomorrow will be 2m 28s longer.
Waning Gibbous, 83% of the Moon is Illuminated
Today
Waning Gibbous
Apr 22
Last Quarter
Apr 29
New
May 6
First Quarter
May 14
Full

Today's Extremes

State Highs State Lows

Community

  • Sunset Silhouettes
    Sunset Silhouettes
  • FL sunset Perico Isle
    FL sunset Perico Isle
  • Cloudy spring view
    Cloudy spring view
  • Old barn
    Old barn
  • What's for Lunch?
    What's for Lunch?

WunderPhotos

Upload Photos

1,702,630 photos uploaded!

WunderBlogs® & News

Nearby

Snow Depth

Station Depth Elevation
No new snow has been reported.

Coastal Water Temperatures

Place Temperature
No Stations Reporting

Earthquake Activity

City Distance Mag. Time & Date
No recent earthquake activity has been reported nearby.
Minimum magnitude displayed is 2.5.

Nearby Weather Stations

Station Location Temp. Windchill Dew Point Humidity Wind Precip. Elev Updated Type
BEVERLY, OH 49.1 °F 49 °F 42 °F 75% North  at  0.0 mph 0.00 in / hr 702 ft 11:55 PM EDT Rapid Fire
Waterford, Waterford, OH 55.8 °F - 41 °F 57% North  at  0.0 mph 0.00 in / hr 854 ft 11:51 PM EDT Normal
Waterford, OH 47.4 °F 47 °F 42 °F 82% South  at  0.0 mph 0.00 in / hr 774 ft 10:53 PM CDT Normal

Show More Stations Show Fewer Stations

What do you think?

We're not finished. Please let us know what you like, what you don't like, and what you are still missing.